Sherrodsville, Ohio
Current Conditions -  °F | °C
As of 4:53 PM on Monday 20 Oct 2014 (Local Time) from KPHD Reporting Station
Light Rain Light Rain  
Wind Chill: 57°   Ceiling: 8000
Heat Index: 57°   Visibility: 10mi
Dew Point: 43°   Wind: 7mph
Humidity: 59%   Direction: 170°S
Pressure: 29.87"   Gusts: NA
Location:  40.49°N, 81.24°W
Report Text: KPHD 202053Z AUTO 17006KT 10SM -RA FEW065 OVC080 14/06 A2987 RMK AO2 RAB10E22B48 SLP118 P0000 60000 T01390061 56011
Loading
Personal Weather Stations






























Interactive Weather Map
Tropical Storm Tracking
New forecast layout! Learn more

10-Day Weather Forecast

Advertisements
Track Severe Weather on mobile